Time;durP1;ratioP1;P1;durP2;ratioP2;P2;SDS_P1;SDS_P2;PMS_P1;PMS_P2;Temp;Humidity;BMP_temperature;BMP_pressure;BME280_temperature;BME280_humidity;BME280_pressure;Samples;Min_cycle;Max_cycle;Signal;HPM_P1;HPM_P2
2023/06/01 00:01:08;;;;;;;1999.90;999.90;;;16.90;99.90;;;;;;5094242;28;20230;-71
2023/06/01 00:03:36;;;;;;;1999.90;999.90;;;17.00;99.90;;;;;;5094217;28;20055;-73
2023/06/01 00:06:05;;;;;;;1999.90;999.90;;;17.10;99.90;;;;;;5093845;28;20069;-71
2023/06/01 00:08:32;;;;;;;1999.90;999.90;;;17.20;99.90;;;;;;5093115;28;20561;-71
2023/06/01 00:10:59;;;;;;;1999.90;999.90;;;17.30;99.90;;;;;;5100683;28;20032;-70
2023/06/01 00:13:27;;;;;;;1999.90;999.90;;;17.30;99.90;;;;;;5093825;28;20055;-70
2023/06/01 00:15:55;;;;;;;1999.90;999.90;;;17.40;99.90;;;;;;5067563;28;20033;-69
2023/06/01 00:18:22;;;;;;;1999.90;999.90;;;17.40;99.90;;;;;;5089706;28;20016;-69
2023/06/01 00:20:51;;;;;;;1999.90;999.90;;;17.40;99.90;;;;;;5079611;28;20093;-70
2023/06/01 00:23:19;;;;;;;1999.90;999.90;;;17.40;99.90;;;;;;5083589;28;20024;-70
2023/06/01 00:25:47;;;;;;;1999.90;999.90;;;17.40;99.90;;;;;;5082887;28;21525;-70
2023/06/01 00:28:15;;;;;;;1999.90;999.90;;;17.40;99.90;;;;;;5088782;28;20051;-70
2023/06/01 00:30:42;;;;;;;1999.90;999.90;;;17.40;99.90;;;;;;5082077;28;20020;-70
2023/06/01 00:33:09;;;;;;;1999.90;999.90;;;17.40;99.90;;;;;;5090618;28;20031;-71
2023/06/01 00:35:37;;;;;;;1999.90;999.90;;;17.40;99.90;;;;;;5093621;28;20517;-71
2023/06/01 00:38:06;;;;;;;1999.90;999.90;;;17.40;99.90;;;;;;5091738;28;20032;-71
2023/06/01 00:40:34;;;;;;;1999.90;999.90;;;17.40;99.90;;;;;;5094175;28;20906;-70
2023/06/01 00:43:02;;;;;;;1999.90;999.90;;;17.30;99.90;;;;;;5085497;28;20042;-70
2023/06/01 00:45:29;;;;;;;1999.90;999.90;;;17.30;99.90;;;;;;5092623;28;20085;-70
2023/06/01 00:47:59;;;;;;;1999.90;999.90;;;17.30;99.90;;;;;;5085714;28;20067;-70
2023/06/01 00:50:27;;;;;;;1999.90;999.90;;;17.20;99.90;;;;;;5082186;28;20093;-71
2023/06/01 00:52:55;;;;;;;1999.90;999.90;;;17.20;99.90;;;;;;5082232;28;20066;-71
2023/06/01 00:55:23;;;;;;;1999.90;999.90;;;17.20;99.90;;;;;;5088056;28;20524;-70
2023/06/01 00:57:52;;;;;;;1999.90;999.90;;;17.20;99.90;;;;;;5082359;28;21225;-72
2023/06/01 01:00:20;;;;;;;1999.90;999.90;;;17.20;99.90;;;;;;5087490;28;20078;-71
2023/06/01 01:02:51;;;;;;;1999.90;999.90;;;17.20;99.90;;;;;;5073633;28;20076;-70
2023/06/01 01:05:19;;;;;;;1999.90;999.90;;;17.30;99.90;;;;;;5088526;28;20020;-72
2023/06/01 01:07:56;;;;;;;1999.90;999.90;;;17.30;99.90;;;;;;5086318;28;20043;-71
2023/06/01 01:10:29;;;;;;;1999.90;999.90;;;17.40;99.90;;;;;;5077746;28;20028;-71
2023/06/01 01:13:16;;;;;;;1999.90;999.90;;;17.50;99.90;;;;;;5088051;28;20060;-72
2023/06/01 01:15:55;;;;;;;1999.90;999.90;;;17.60;99.90;;;;;;5078961;28;20028;-71
2023/06/01 01:18:46;;;;;;;1999.90;999.90;;;17.80;99.90;;;;;;5081202;28;20023;-69
2023/06/01 01:21:28;;;;;;;1999.90;999.90;;;18.00;99.90;;;;;;5081711;28;20118;-70
2023/06/01 01:24:09;;;;;;;1999.90;999.90;;;18.20;99.90;;;;;;5080166;28;20032;-70
2023/06/01 01:26:53;;;;;;;1999.90;999.90;;;18.30;99.90;;;;;;5080156;28;20031;-70
2023/06/01 01:29:24;;;;;;;1999.90;999.90;;;18.50;99.90;;;;;;5076643;28;20028;-71
2023/06/01 01:31:53;;;;;;;1999.90;999.90;;;18.60;99.90;;;;;;5083943;28;22272;-71
2023/06/01 01:34:21;;;;;;;1999.90;999.90;;;18.70;99.90;;;;;;5088345;28;20072;-71
2023/06/01 01:36:48;;;;;;;1999.90;999.90;;;18.70;99.90;;;;;;5084771;28;20347;-70
2023/06/01 01:39:16;;;;;;;1999.90;999.90;;;18.70;99.90;;;;;;5083403;28;20474;-70
2023/06/01 01:41:43;;;;;;;1999.90;999.90;;;18.70;99.90;;;;;;5084796;28;20044;-69
2023/06/01 01:44:11;;;;;;;1999.90;999.90;;;18.70;99.90;;;;;;5085607;28;20024;-72
2023/06/01 01:46:54;;;;;;;1999.90;999.90;;;18.80;99.90;;;;;;5086331;28;20135;-72
2023/06/01 01:49:32;;;;;;;1999.90;999.90;;;18.80;99.90;;;;;;5078403;28;20095;-68
2023/06/01 01:52:35;;;;;;;1999.90;999.90;;;18.90;99.90;;;;;;5086308;28;20099;-72
2023/06/01 02:52:27;;;;;;;1999.90;999.90;;;19.60;99.90;;;;;;5110924;23;20063;-72
2023/06/01 02:54:54;;;;;;;1999.90;999.90;;;19.60;99.90;;;;;;4941751;28;20042;-72
2023/06/01 02:57:25;;;;;;;1999.90;999.90;;;19.60;99.90;;;;;;4938403;28;20453;-70
2023/06/01 02:59:53;;;;;;;1999.90;999.90;;;19.70;99.90;;;;;;4955443;28;20039;-71
2023/06/01 03:02:26;;;;;;;1999.90;999.90;;;19.70;99.90;;;;;;4953117;28;20403;-70
2023/06/01 03:04:55;;;;;;;1999.90;999.90;;;19.80;99.90;;;;;;4939206;28;20808;-70
2023/06/01 03:07:22;;;;;;;1999.90;999.90;;;19.80;99.90;;;;;;4957425;28;20466;-73
2023/06/01 03:09:50;;;;;;;1999.90;999.90;;;19.90;99.90;;;;;;4954128;28;20031;-74
2023/06/01 03:12:17;;;;;;;1999.90;999.90;;;19.90;99.90;;;;;;4947783;28;20028;-75
2023/06/01 03:14:44;;;;;;;1999.90;999.90;;;20.00;99.90;;;;;;4958580;28;20023;-74
2023/06/01 03:17:12;;;;;;;1999.90;999.90;;;20.10;99.90;;;;;;4957004;28;20097;-71
2023/06/01 03:19:39;;;;;;;1999.90;999.90;;;20.10;99.90;;;;;;4962606;28;20027;-75
2023/06/01 03:22:07;;;;;;;1999.90;999.90;;;20.10;99.90;;;;;;4957401;28;20042;-74
2023/06/01 03:24:34;;;;;;;1999.90;999.90;;;20.20;99.90;;;;;;4956541;28;20039;-74
2023/06/01 03:27:02;;;;;;;1999.90;999.90;;;20.20;99.90;;;;;;4931910;29;20441;-72
2023/06/01 03:29:30;;;;;;;1999.90;999.90;;;20.20;99.90;;;;;;4953725;28;20028;-73
2023/06/01 03:31:57;;;;;;;1999.90;999.90;;;20.20;99.90;;;;;;4956397;28;20521;-73
2023/06/01 03:34:24;;;;;;;1999.90;999.90;;;20.10;99.90;;;;;;4950992;28;20111;-72
2023/06/01 03:36:52;;;;;;;1999.90;999.90;;;20.10;99.90;;;;;;4952873;28;20394;-71
2023/06/01 03:39:19;;;;;;;1999.90;999.90;;;20.10;99.90;;;;;;4945572;28;20093;-72
2023/06/01 03:41:46;;;;;;;1999.90;999.90;;;20.00;99.90;;;;;;4952615;28;20509;-71
2023/06/01 03:44:14;;;;;;;1999.90;999.90;;;20.00;99.90;;;;;;4954739;28;20152;-71
2023/06/01 03:46:41;;;;;;;1999.90;999.90;;;20.00;99.90;;;;;;4955269;28;20117;-72
2023/06/01 03:49:09;;;;;;;1999.90;999.90;;;20.00;99.90;;;;;;4955368;28;20565;-70
2023/06/01 03:51:36;;;;;;;1999.90;999.90;;;19.90;99.90;;;;;;4955135;28;20066;-72
2023/06/01 03:54:04;;;;;;;1999.90;999.90;;;20.00;99.90;;;;;;4960703;28;20128;-72
2023/06/01 03:56:31;;;;;;;1999.90;999.90;;;19.90;99.90;;;;;;4954285;28;20279;-72
2023/06/01 03:59:00;;;;;;;1999.90;999.90;;;20.00;99.90;;;;;;4960621;28;20039;-70
2023/06/01 04:01:32;;;;;;;1999.90;999.90;;;20.00;99.90;;;;;;4943522;28;20098;-72
2023/06/01 04:03:59;;;;;;;1999.90;999.90;;;20.00;99.90;;;;;;4944738;28;20042;-71
2023/06/01 04:06:29;;;;;;;1999.90;999.90;;;20.00;99.90;;;;;;4935783;28;21262;-73
2023/06/01 04:08:58;;;;;;;1999.90;999.90;;;20.10;99.90;;;;;;4944030;28;20334;-74
2023/06/01 04:11:28;;;;;;;1999.90;999.90;;;20.10;99.90;;;;;;4941351;28;20036;-73
2023/06/01 04:13:56;;;;;;;1999.90;999.90;;;20.10;99.90;;;;;;4938113;28;20047;-73
2023/06/01 04:16:23;;;;;;;1999.90;999.90;;;20.10;99.90;;;;;;4941465;28;20050;-72
2023/06/01 04:18:51;;;;;;;1999.90;999.90;;;20.10;99.90;;;;;;4945989;28;20039;-71
2023/06/01 04:21:20;;;;;;;1999.90;999.90;;;20.10;99.90;;;;;;4943318;28;20042;-71
2023/06/01 04:23:48;;;;;;;1999.90;999.90;;;20.10;99.90;;;;;;4944967;28;20121;-72
2023/06/01 04:26:18;;;;;;;1999.90;999.90;;;20.00;99.90;;;;;;4946760;28;20031;-71
2023/06/01 04:28:46;;;;;;;1999.90;999.90;;;20.00;99.90;;;;;;4939377;28;20505;-71
2023/06/01 04:31:16;;;;;;;1999.90;999.90;;;20.00;99.90;;;;;;4941561;28;20038;-72
2023/06/01 04:33:52;;;;;;;1999.90;999.90;;;20.00;99.90;;;;;;4941360;28;20039;-73
2023/06/01 04:36:21;;;;;;;1999.90;999.90;;;20.10;99.90;;;;;;4947162;28;20403;-73
2023/06/01 04:38:55;;;;;;;1999.90;999.90;;;20.10;99.90;;;;;;4946244;28;20035;-72
2023/06/01 04:41:24;;;;;;;1999.90;999.90;;;20.10;99.90;;;;;;4943175;28;20114;-72
2023/06/01 04:43:53;;;;;;;1999.90;999.90;;;20.00;99.90;;;;;;4947117;28;20028;-71
2023/06/01 04:46:23;;;;;;;1999.90;999.90;;;20.00;99.90;;;;;;4947148;28;20063;-71
2023/06/01 04:48:58;;;;;;;1999.90;999.90;;;20.00;99.90;;;;;;4944580;28;20110;-71
2023/06/01 04:51:26;;;;;;;1999.90;999.90;;;20.00;99.90;;;;;;4940697;28;20040;-71
2023/06/01 04:53:55;;;;;;;1999.90;999.90;;;20.00;99.90;;;;;;4947072;28;20120;-73
2023/06/01 04:56:26;;;;;;;1999.90;999.90;;;20.10;99.90;;;;;;4942713;28;20038;-70
2023/06/01 04:58:57;;;;;;;1999.90;999.90;;;20.00;99.90;;;;;;4938548;28;20038;-73
2023/06/01 05:01:25;;;;;;;1999.90;999.90;;;20.10;99.90;;;;;;4947248;28;20580;-75
2023/06/01 05:03:55;;;;;;;1999.90;999.90;;;20.00;99.90;;;;;;4944009;28;20023;-75
2023/06/01 05:06:24;;;;;;;1999.90;999.90;;;20.00;99.90;;;;;;4936262;28;20034;-76
2023/06/01 05:08:52;;;;;;;1999.90;999.90;;;19.90;99.90;;;;;;4956532;28;20381;-72
2023/06/01 05:11:21;;;;;;;1999.90;999.90;;;19.90;99.90;;;;;;4961429;28;20087;-73
2023/06/01 05:13:48;;;;;;;1999.90;999.90;;;19.90;99.90;;;;;;4947856;28;20039;-73
2023/06/01 05:16:15;;;;;;;1999.90;999.90;;;19.80;99.90;;;;;;4947844;28;20279;-71
2023/06/01 05:18:43;;;;;;;1999.90;999.90;;;19.80;99.90;;;;;;4946818;28;20023;-71
2023/06/01 05:21:10;;;;;;;1999.90;999.90;;;19.80;99.90;;;;;;4943910;28;20138;-72
2023/06/01 05:23:37;;;;;;;1999.90;999.90;;;19.80;99.90;;;;;;4946492;28;20567;-72
2023/06/01 05:26:05;;;;;;;1999.90;999.90;;;19.70;99.90;;;;;;4945751;28;20032;-72
2023/06/01 05:28:35;;;;;;;1999.90;999.90;;;19.70;99.90;;;;;;4939225;28;20028;-71
2023/06/01 05:31:03;;;;;;;1999.90;999.90;;;19.60;99.90;;;;;;4943814;28;20027;-71
2023/06/01 05:33:31;;;;;;;1999.90;999.90;;;19.60;99.90;;;;;;4944346;28;20038;-71
2023/06/01 05:36:01;;;;;;;1999.90;999.90;;;19.50;99.90;;;;;;4943912;28;20743;-72
2023/06/01 05:38:28;;;;;;;1999.90;999.90;;;19.50;99.90;;;;;;4944509;28;20035;-73
2023/06/01 05:40:56;;;;;;;1999.90;999.90;;;19.60;99.90;;;;;;4941806;28;20411;-71
2023/06/01 05:43:23;;;;;;;1999.90;999.90;;;19.70;99.90;;;;;;4942091;28;20028;-71
2023/06/01 05:45:51;;;;;;;1999.90;999.90;;;19.70;99.90;;;;;;4945796;28;20020;-73
2023/06/01 05:48:18;;;;;;;1999.90;999.90;;;19.70;99.90;;;;;;4948607;28;20482;-73
2023/06/01 05:50:45;;;;;;;1999.90;999.90;;;19.70;99.90;;;;;;4945107;28;20027;-72
2023/06/01 05:53:13;;;;;;;1999.90;999.90;;;19.70;99.90;;;;;;4947627;28;20051;-76
2023/06/01 05:55:41;;;;;;;1999.90;999.90;;;19.60;99.90;;;;;;4954720;28;20423;-71
2023/06/01 05:58:11;;;;;;;1999.90;999.90;;;19.70;99.90;;;;;;4931370;28;20028;-71
2023/06/01 06:00:38;;;;;;;1999.90;999.90;;;19.70;99.90;;;;;;4944605;28;20044;-70
2023/06/01 06:03:06;;;;;;;1999.90;999.90;;;19.70;99.90;;;;;;4958926;28;20052;-74
2023/06/01 06:05:33;;;;;;;1999.90;999.90;;;19.70;99.90;;;;;;4948829;28;20031;-69
2023/06/01 06:08:01;;;;;;;1999.90;999.90;;;19.70;99.90;;;;;;4945023;28;20067;-71
2023/06/01 06:10:28;;;;;;;1999.90;999.90;;;19.70;99.90;;;;;;4945921;28;20019;-70
2023/06/01 06:12:55;;;;;;;1999.90;999.90;;;19.80;99.90;;;;;;4945285;28;20038;-69
2023/06/01 06:15:23;;;;;;;1999.90;999.90;;;19.80;99.90;;;;;;4961761;28;20065;-71
2023/06/01 06:17:50;;;;;;;1999.90;999.90;;;19.90;99.90;;;;;;4958680;28;20038;-71
2023/06/01 06:20:21;;;;;;;1999.90;999.90;;;20.00;99.90;;;;;;4949059;28;20054;-71
2023/06/01 06:22:53;;;;;;;1999.90;999.90;;;20.00;99.90;;;;;;4953339;28;20031;-69
2023/06/01 06:25:21;;;;;;;1999.90;999.90;;;20.00;99.90;;;;;;4927283;28;20031;-69
2023/06/01 06:27:48;;;;;;;1999.90;999.90;;;19.90;99.90;;;;;;4948827;28;20098;-72
2023/06/01 06:30:16;;;;;;;1999.90;999.90;;;19.90;99.90;;;;;;4945501;28;21843;-71
2023/06/01 06:32:43;;;;;;;1999.90;999.90;;;19.80;99.90;;;;;;4946232;28;20394;-72
2023/06/01 06:35:14;;;;;;;1999.90;999.90;;;19.60;99.90;;;;;;4951279;28;20101;-70
2023/06/01 06:37:43;;;;;;;1999.90;999.90;;;19.50;99.90;;;;;;4945269;28;20118;-70
2023/06/01 06:40:11;;;;;;;1999.90;999.90;;;19.20;99.90;;;;;;4943275;28;20061;-72
2023/06/01 06:42:38;;;;;;;1999.90;999.90;;;19.00;99.90;;;;;;4950833;28;20134;-73
2023/06/01 06:45:06;;;;;;;1999.90;999.90;;;18.80;99.90;;;;;;4943156;28;20031;-72
2023/06/01 06:47:34;;;;;;;1999.90;999.90;;;18.60;99.90;;;;;;4952627;28;20115;-72
2023/06/01 06:50:01;;;;;;;1999.90;999.90;;;18.40;99.90;;;;;;4948364;28;20054;-71
2023/06/01 06:52:29;;;;;;;1999.90;999.90;;;18.20;99.90;;;;;;4947150;28;20066;-72
2023/06/01 06:54:57;;;;;;;1999.90;999.90;;;18.00;99.90;;;;;;4943613;28;20042;-72
2023/06/01 06:57:24;;;;;;;1999.90;999.90;;;17.80;99.90;;;;;;4942590;28;20445;-72
2023/06/01 06:59:51;;;;;;;1999.90;999.90;;;17.70;99.90;;;;;;4927591;28;20040;-72
2023/06/01 07:02:19;;;;;;;1999.90;999.90;;;17.50;99.90;;;;;;4944324;28;20071;-72
2023/06/01 07:04:46;;;;;;;1999.90;999.90;;;17.40;99.90;;;;;;4951845;28;20091;-72
2023/06/01 07:07:14;;;;;;;1999.90;999.90;;;17.30;99.90;;;;;;4942595;28;20032;-72
2023/06/01 07:09:41;;;;;;;1999.90;999.90;;;17.20;99.90;;;;;;4943487;28;20447;-72
2023/06/01 07:12:09;;;;;;;1999.90;999.90;;;17.10;99.90;;;;;;4947578;28;20482;-72
2023/06/01 07:14:36;;;;;;;1999.90;999.90;;;17.00;99.90;;;;;;4947333;28;20035;-71
2023/06/01 07:17:04;;;;;;;1999.90;999.90;;;16.90;99.90;;;;;;4946608;28;20058;-73
2023/06/01 07:19:32;;;;;;;1999.90;999.90;;;16.80;99.90;;;;;;4947292;28;20516;-71
2023/06/01 07:22:00;;;;;;;1999.90;999.90;;;16.70;99.90;;;;;;4948791;28;20047;-72
2023/06/01 07:24:28;;;;;;;1999.90;999.90;;;16.70;99.90;;;;;;4949006;28;20031;-73
2023/06/01 07:26:57;;;;;;;1999.90;999.90;;;16.60;99.90;;;;;;4951805;28;20042;-72
2023/06/01 07:29:26;;;;;;;1999.90;999.90;;;16.60;99.90;;;;;;4943615;28;20917;-71
2023/06/01 07:31:54;;;;;;;1999.90;999.90;;;16.40;99.90;;;;;;4941946;28;20448;-72
2023/06/01 07:34:21;;;;;;;1999.90;999.90;;;16.40;99.90;;;;;;4947293;28;20035;-73
2023/06/01 07:36:50;;;;;;;1999.90;999.90;;;16.30;99.90;;;;;;4949931;28;20054;-75
2023/06/01 07:39:17;;;;;;;1999.90;999.90;;;16.30;99.90;;;;;;4956323;28;20385;-75
2023/06/01 07:41:53;;;;;;;1999.90;999.90;;;16.20;99.90;;;;;;4958308;28;20039;-77
2023/06/01 07:44:20;;;;;;;;;;;16.10;99.90;;;;;;4949877;28;20039;-73
2023/06/01 07:46:47;;;;;;;1999.90;999.90;;;16.00;99.90;;;;;;4947845;28;19918;-73
2023/06/01 07:49:15;;;;;;;1999.90;999.90;;;15.90;99.90;;;;;;4951355;28;20082;-74
2023/06/01 07:51:43;;;;;;;1999.90;999.90;;;15.90;99.90;;;;;;4951858;28;20043;-77
2023/06/01 07:54:11;;;;;;;1999.90;999.90;;;15.80;99.90;;;;;;4955500;28;20035;-76
2023/06/01 07:56:39;;;;;;;1999.90;999.90;;;15.70;99.90;;;;;;4950996;28;20430;-71
2023/06/01 07:59:06;;;;;;;1999.90;999.90;;;15.70;99.90;;;;;;4945880;28;20023;-76
2023/06/01 08:01:34;;;;;;;1999.90;999.90;;;15.60;99.90;;;;;;4940400;28;20074;-75
2023/06/01 08:04:01;;;;;;;1999.90;999.90;;;15.60;99.90;;;;;;4946482;28;20039;-71
2023/06/01 08:06:35;;;;;;;1999.90;999.90;;;15.60;99.90;;;;;;4948230;28;20386;-74
2023/06/01 08:09:03;;;;;;;1999.90;999.90;;;15.60;99.90;;;;;;4949943;28;20035;-75
2023/06/01 08:11:31;;;;;;;1999.90;999.90;;;15.50;99.90;;;;;;4955940;28;20355;-75
2023/06/01 08:14:04;;;;;;;1999.90;999.90;;;15.50;99.90;;;;;;4946782;28;20406;-75
2023/06/01 08:16:31;;;;;;;1999.90;999.90;;;15.50;99.90;;;;;;4926707;28;20023;-76
2023/06/01 08:18:58;;;;;;;1999.90;999.90;;;15.50;99.90;;;;;;4949396;28;20039;-73
2023/06/01 08:21:26;;;;;;;1999.90;999.90;;;15.60;99.90;;;;;;4945349;28;20051;-76
2023/06/01 08:23:57;;;;;;;1999.90;999.90;;;15.50;99.90;;;;;;4945525;28;20042;-72
2023/06/01 08:26:25;;;;;;;1999.90;999.90;;;15.50;99.90;;;;;;4944943;28;20027;-74
2023/06/01 08:28:52;;;;;;;1999.90;999.90;;;15.40;99.90;;;;;;4943655;28;20027;-71
2023/06/01 08:31:25;;;;;;;1999.90;999.90;;;15.20;99.90;;;;;;4942524;28;20028;-72
2023/06/01 08:33:54;;;;;;;1999.90;999.90;;;15.10;99.90;;;;;;4943677;28;20444;-76
2023/06/01 08:36:22;;;;;;;1999.90;999.90;;;15.10;99.90;;;;;;4946221;28;20031;-72
2023/06/01 08:38:53;;;;;;;1999.90;999.90;;;15.00;99.90;;;;;;4945377;28;20078;-76
2023/06/01 08:41:32;;;;;;;1999.90;999.90;;;14.90;99.90;;;;;;4943961;28;20043;-76
2023/06/01 08:44:03;;;;;;;1999.90;999.90;;;14.80;99.90;;;;;;4940675;28;20512;-72
2023/06/01 08:46:36;;;;;;;1999.90;999.90;;;14.70;99.90;;;;;;4949499;28;20086;-76
2023/06/01 08:49:06;;;;;;;1999.90;999.90;;;14.70;99.90;;;;;;4945150;28;20050;-75
2023/06/01 08:51:37;;;;;;;1999.90;999.90;;;14.60;99.90;;;;;;4942245;28;20074;-75
2023/06/01 08:54:08;;;;;;;1999.90;999.90;;;14.40;99.90;;;;;;4944587;28;20036;-75
2023/06/01 08:56:41;;;;;;;1999.90;999.90;;;14.30;99.90;;;;;;4952631;28;20036;-74
2023/06/01 08:59:13;;;;;;;1999.90;999.90;;;14.30;99.90;;;;;;4955401;28;20090;-77
2023/06/01 09:01:41;;;;;;;1999.90;999.90;;;14.20;99.90;;;;;;4945480;28;20066;-74
2023/06/01 09:04:09;;;;;;;1999.90;999.90;;;14.10;99.90;;;;;;4947707;28;20092;-74
2023/06/01 09:06:37;;;;;;;1999.90;999.90;;;14.10;99.90;;;;;;4946195;28;20043;-72
2023/06/01 09:09:06;;;;;;;1999.90;999.90;;;14.00;99.90;;;;;;4946439;28;20367;-75
2023/06/01 09:11:34;;;;;;;1999.90;999.90;;;13.90;99.90;;;;;;4951567;28;20417;-76
2023/06/01 09:14:01;;;;;;;1999.90;999.90;;;13.90;99.90;;;;;;4947890;28;20521;-74
2023/06/01 09:16:37;;;;;;;1999.90;999.90;;;13.80;99.90;;;;;;4947036;28;20049;-75
2023/06/01 09:19:05;;;;;;;1999.90;999.90;;;13.80;99.90;;;;;;4944727;28;20474;-75
2023/06/01 09:21:32;;;;;;;1999.90;999.90;;;13.70;99.90;;;;;;4947302;28;20050;-73
2023/06/01 09:24:20;;;;;;;1999.90;999.90;;;13.60;99.90;;;;;;4949298;28;20088;-73
2023/06/01 09:26:51;;;;;;;1999.90;999.90;;;13.50;99.90;;;;;;4951558;28;20036;-74
2023/06/01 09:29:21;;;;;;;1999.90;999.90;;;13.50;99.90;;;;;;4950316;28;21303;-72
2023/06/01 09:31:49;;;;;;;1999.90;999.90;;;13.40;99.90;;;;;;4951878;28;20059;-76
2023/06/01 09:34:19;;;;;;;1999.90;999.90;;;13.40;99.90;;;;;;4949917;28;20035;-72
2023/06/01 09:36:51;;;;;;;1999.90;999.90;;;13.40;99.90;;;;;;4931038;28;20027;-73
2023/06/01 09:39:23;;;;;;;1999.90;999.90;;;13.40;99.90;;;;;;4945358;28;20032;-77
2023/06/01 09:41:54;;;;;;;1999.90;999.90;;;13.40;99.90;;;;;;4945384;28;20050;-77
2023/06/01 09:44:30;;;;;;;1999.90;999.90;;;13.40;99.90;;;;;;4952581;28;20430;-71
2023/06/01 09:47:12;;;;;;;1999.90;999.90;;;13.40;99.90;;;;;;4954773;28;20039;-75
2023/06/01 09:49:45;;;;;;;1999.90;999.90;;;13.40;99.90;;;;;;4954017;28;20023;-75
2023/06/01 09:52:16;;;;;;;1999.90;999.90;;;13.30;99.90;;;;;;4948163;28;20087;-71
2023/06/01 09:54:48;;;;;;;1999.90;999.90;;;13.30;99.90;;;;;;4948951;28;20109;-75
2023/06/01 09:57:24;;;;;;;1999.90;999.90;;;13.20;99.90;;;;;;4948299;28;20488;-76
2023/06/01 09:59:51;;;;;;;1999.90;999.90;;;13.20;99.90;;;;;;4954687;28;20034;-75
2023/06/01 10:02:24;;;;;;;1999.90;999.90;;;13.20;99.90;;;;;;4954739;28;20039;-74
2023/06/01 10:05:00;;;;;;;1999.90;999.90;;;13.20;99.90;;;;;;4960830;28;20058;-72
2023/06/01 10:07:33;;;;;;;1999.90;999.90;;;13.10;99.90;;;;;;4949983;28;20031;-75
2023/06/01 10:10:05;;;;;;;1999.90;999.90;;;13.10;99.90;;;;;;4952327;28;20031;-72
2023/06/01 10:12:34;;;;;;;1999.90;999.90;;;13.00;99.90;;;;;;4944241;28;20085;-74
2023/06/01 10:15:03;;;;;;;1999.90;999.90;;;13.00;99.90;;;;;;4958679;28;20031;-75
2023/06/01 10:17:31;;;;;;;1999.90;999.90;;;12.90;99.90;;;;;;4950319;28;20027;-75
2023/06/01 10:19:59;;;;;;;1999.90;999.90;;;12.90;99.90;;;;;;4941157;28;20027;-76
2023/06/01 10:22:26;;;;;;;1999.90;999.90;;;12.80;99.90;;;;;;4943898;28;20059;-79
2023/06/01 10:24:58;;;;;;;1999.90;999.90;;;12.80;99.90;;;;;;4954062;28;20833;-74
2023/06/01 10:27:32;;;;;;;1999.90;999.90;;;12.80;99.90;;;;;;4950249;28;20027;-74
2023/06/01 10:30:00;;;;;;;1999.90;999.90;;;12.80;99.90;;;;;;4948130;28;20035;-76
2023/06/01 10:32:48;;;;;;;1999.90;999.90;;;12.70;99.90;;;;;;4948737;28;20035;-73
2023/06/01 10:35:27;;;;;;;1999.90;999.90;;;12.70;99.90;;;;;;4943337;28;20036;-76
2023/06/01 10:38:10;;;;;;;1999.90;999.90;;;12.70;99.90;;;;;;4948794;28;20462;-74
2023/06/01 10:40:42;;;;;;;1999.90;999.90;;;12.60;99.90;;;;;;4947264;28;20026;-74
2023/06/01 10:43:40;;;;;;;1999.90;999.90;;;12.60;99.90;;;;;;4950904;28;20032;-75
2023/06/01 10:46:36;;;;;;;1999.90;999.90;;;12.60;99.90;;;;;;4951460;28;20038;-71
2023/06/01 10:49:05;;;;;;;1999.90;999.90;;;12.70;99.90;;;;;;4946679;28;20035;-76
2023/06/01 10:51:32;;;;;;;1999.90;999.90;;;12.70;99.90;;;;;;4950394;28;20051;-74
2023/06/01 10:54:26;;;;;;;1999.90;999.90;;;12.60;99.90;;;;;;4949899;28;20513;-71
2023/06/01 10:57:23;;;;;;;1999.90;999.90;;;12.60;99.90;;;;;;4951222;28;20031;-75
2023/06/01 11:00:09;;;;;;;1999.90;999.90;;;12.50;99.90;;;;;;4942790;28;20043;-76
2023/06/01 11:02:44;;;;;;;1999.90;999.90;;;12.40;99.90;;;;;;4948412;28;20635;-71
2023/06/01 11:05:47;;;;;;;1999.90;999.90;;;12.30;99.90;;;;;;4949362;28;20066;-75
2023/06/01 11:08:21;;;;;;;1999.90;999.90;;;12.30;99.90;;;;;;4950579;28;20044;-72
2023/06/01 11:11:13;;;;;;;1999.90;999.90;;;12.30;99.90;;;;;;4952201;28;20034;-73
2023/06/01 11:13:42;;;;;;;1999.90;999.90;;;12.30;99.90;;;;;;4948794;28;20096;-73
2023/06/01 11:16:22;;;;;;;1999.90;999.90;;;12.30;99.90;;;;;;4957181;28;20030;-72
2023/06/01 11:18:59;;;;;;;1999.90;999.90;;;12.20;99.90;;;;;;4945157;28;20035;-76
2023/06/01 11:21:28;;;;;;;1999.90;999.90;;;12.20;99.90;;;;;;4931026;28;20042;-70
2023/06/01 11:23:58;;;;;;;1999.90;999.90;;;12.30;99.90;;;;;;4950959;28;20019;-75
2023/06/01 11:26:35;;;;;;;1999.90;999.90;;;12.30;99.90;;;;;;4943104;28;20063;-69
2023/06/01 11:29:17;;;;;;;1999.90;999.90;;;12.30;99.90;;;;;;4949747;28;20032;-72
2023/06/01 11:31:50;;;;;;;1999.90;999.90;;;12.30;99.90;;;;;;4946804;28;20454;-70
2023/06/01 11:34:19;;;;;;;1999.90;999.90;;;12.30;99.90;;;;;;4958738;28;20446;-74
2023/06/01 11:36:49;;;;;;;1999.90;999.90;;;12.30;99.90;;;;;;4953724;28;20492;-75
2023/06/01 11:39:28;;;;;;;1999.90;999.90;;;12.30;99.90;;;;;;4959343;28;20037;-72
2023/06/01 11:42:07;;;;;;;1999.90;999.90;;;12.40;99.90;;;;;;4945559;28;20035;-72
2023/06/01 11:44:36;;;;;;;1999.90;999.90;;;12.40;99.90;;;;;;4947036;28;20465;-74
2023/06/01 11:47:08;;;;;;;1999.90;999.90;;;12.50;99.90;;;;;;4944316;28;20035;-74
2023/06/01 11:49:50;;;;;;;1999.90;999.90;;;12.50;99.90;;;;;;4946517;28;20035;-75
2023/06/01 11:52:18;;;;;;;1999.90;999.90;;;12.60;99.90;;;;;;4934130;28;20126;-70
2023/06/01 11:54:51;;;;;;;1999.90;999.90;;;12.70;99.90;;;;;;4945748;28;20035;-69
2023/06/01 11:57:19;;;;;;;1999.90;999.90;;;12.70;99.90;;;;;;4945564;28;20062;-70
2023/06/01 11:59:50;;;;;;;1999.90;999.90;;;12.70;99.90;;;;;;4945246;28;20097;-74
2023/06/01 12:02:24;;;;;;;1999.90;999.90;;;12.70;99.90;;;;;;4949013;28;20039;-73
2023/06/01 12:04:57;;;;;;;1999.90;999.90;;;12.70;99.90;;;;;;4946612;28;20027;-75
2023/06/01 12:07:25;;;;;;;1999.90;999.90;;;12.60;99.90;;;;;;4944276;28;20032;-72
2023/06/01 12:09:57;;;;;;;1999.90;999.90;;;12.60;99.90;;;;;;4948639;28;20031;-78
2023/06/01 12:12:29;;;;;;;1999.90;999.90;;;12.50;99.90;;;;;;4929637;28;20039;-77
2023/06/01 12:14:56;;;;;;;1999.90;999.90;;;12.60;99.90;;;;;;4946117;28;20038;-76
2023/06/01 12:17:24;;;;;;;1999.90;999.90;;;12.50;99.90;;;;;;4943468;28;21050;-72
2023/06/01 12:19:52;;;;;;;1999.90;999.90;;;12.50;99.90;;;;;;4947579;28;20038;-71
2023/06/01 12:22:19;;;;;;;1999.90;999.90;;;12.50;99.90;;;;;;4943820;28;20207;-71
2023/06/01 12:24:47;;;;;;;1999.90;999.90;;;12.50;99.90;;;;;;4945569;28;20028;-73
2023/06/01 12:27:16;;;;;;;1999.90;999.90;;;12.50;99.90;;;;;;4950814;28;20035;-70
2023/06/01 12:29:47;;;;;;;1999.90;999.90;;;12.50;99.90;;;;;;4944721;28;20031;-73
2023/06/01 12:32:17;;;;;;;1999.90;999.90;;;12.40;99.90;;;;;;4945258;28;20497;-73
2023/06/01 12:35:06;;;;;;;1999.90;999.90;;;12.40;99.90;;;;;;4941634;28;20039;-74
2023/06/01 12:37:34;;;;;;;1999.90;999.90;;;12.40;99.90;;;;;;4945669;28;20056;-74
2023/06/01 12:40:03;;;;;;;1999.90;999.90;;;12.40;99.90;;;;;;4948403;28;20119;-70
2023/06/01 12:42:40;;;;;;;1999.90;999.90;;;12.30;99.90;;;;;;4954216;28;20070;-74
2023/06/01 12:45:09;;;;;;;1999.90;999.90;;;12.30;99.90;;;;;;4955600;28;20027;-74
2023/06/01 12:47:45;;;;;;;1999.90;999.90;;;12.20;99.90;;;;;;4947185;28;20028;-76
2023/06/01 12:50:16;;;;;;;1999.90;999.90;;;12.20;99.90;;;;;;4949771;28;20172;-74
2023/06/01 12:52:44;;;;;;;1999.90;999.90;;;12.10;99.90;;;;;;4951326;28;20053;-74
2023/06/01 12:55:11;;;;;;;1999.90;999.90;;;12.10;99.90;;;;;;4950263;28;20043;-77
2023/06/01 12:57:39;;;;;;;1999.90;999.90;;;12.10;99.90;;;;;;4950417;28;20023;-76
2023/06/01 13:00:07;;;;;;;1999.90;999.90;;;12.10;99.90;;;;;;4952087;28;20094;-69
2023/06/01 13:02:34;;;;;;;1999.90;999.90;;;12.10;99.90;;;;;;4945113;28;20076;-70
2023/06/01 13:05:04;;;;;;;1999.90;999.90;;;12.20;99.90;;;;;;4949055;28;20039;-69
2023/06/01 13:07:31;;;;;;;1999.90;999.90;;;12.10;99.90;;;;;;4925683;28;20044;-74
2023/06/01 13:10:00;;;;;;;1999.90;999.90;;;12.10;99.90;;;;;;4946131;28;20514;-71
2023/06/01 13:12:27;;;;;;;1999.90;999.90;;;12.00;99.90;;;;;;4942174;28;20043;-71